sensor_id;sensor_type;location;lat;lon;timestamp;P1;durP1;ratioP1;P2;durP2;ratioP2
60975;SDS011;46849;48.154;17.042;2022-10-31T00:02:49;34.75;;;12.93;;
60975;SDS011;46849;48.154;17.042;2022-10-31T00:05:34;31.08;;;12.05;;
60975;SDS011;46849;48.154;17.042;2022-10-31T00:08:18;30.13;;;11.95;;
60975;SDS011;46849;48.154;17.042;2022-10-31T00:11:03;26.30;;;12.18;;
60975;SDS011;46849;48.154;17.042;2022-10-31T00:13:48;25.17;;;12.82;;
60975;SDS011;46849;48.154;17.042;2022-10-31T00:16:32;22.00;;;11.27;;
60975;SDS011;46849;48.154;17.042;2022-10-31T00:19:17;26.33;;;10.48;;
60975;SDS011;46849;48.154;17.042;2022-10-31T00:22:01;22.48;;;10.93;;
60975;SDS011;46849;48.154;17.042;2022-10-31T00:24:46;21.80;;;10.45;;
60975;SDS011;46849;48.154;17.042;2022-10-31T00:27:30;22.17;;;10.57;;
60975;SDS011;46849;48.154;17.042;2022-10-31T00:30:15;21.20;;;10.57;;
60975;SDS011;46849;48.154;17.042;2022-10-31T00:33:00;28.65;;;13.50;;
60975;SDS011;46849;48.154;17.042;2022-10-31T00:35:50;20.80;;;10.27;;
60975;SDS011;46849;48.154;17.042;2022-10-31T00:38:35;25.23;;;10.85;;
60975;SDS011;46849;48.154;17.042;2022-10-31T00:41:19;19.48;;;10.07;;
60975;SDS011;46849;48.154;17.042;2022-10-31T00:44:04;23.15;;;10.73;;
60975;SDS011;46849;48.154;17.042;2022-10-31T00:46:48;24.00;;;10.70;;
60975;SDS011;46849;48.154;17.042;2022-10-31T00:49:37;19.45;;;9.48;;
60975;SDS011;46849;48.154;17.042;2022-10-31T00:52:22;21.83;;;10.32;;
60975;SDS011;46849;48.154;17.042;2022-10-31T00:55:06;22.95;;;9.75;;
60975;SDS011;46849;48.154;17.042;2022-10-31T00:57:51;20.88;;;9.68;;
60975;SDS011;46849;48.154;17.042;2022-10-31T01:00:36;37.35;;;9.45;;
60975;SDS011;46849;48.154;17.042;2022-10-31T01:03:25;13.50;;;8.02;;
60975;SDS011;46849;48.154;17.042;2022-10-31T01:06:14;13.57;;;8.32;;
60975;SDS011;46849;48.154;17.042;2022-10-31T01:09:00;13.38;;;7.32;;
60975;SDS011;46849;48.154;17.042;2022-10-31T01:11:45;17.00;;;8.07;;
60975;SDS011;46849;48.154;17.042;2022-10-31T01:14:29;14.98;;;8.13;;
60975;SDS011;46849;48.154;17.042;2022-10-31T01:17:15;11.50;;;6.80;;
60975;SDS011;46849;48.154;17.042;2022-10-31T01:20:00;15.60;;;7.68;;
60975;SDS011;46849;48.154;17.042;2022-10-31T01:22:45;13.35;;;7.68;;
60975;SDS011;46849;48.154;17.042;2022-10-31T01:25:30;14.13;;;7.90;;
60975;SDS011;46849;48.154;17.042;2022-10-31T01:28:14;12.85;;;8.00;;
60975;SDS011;46849;48.154;17.042;2022-10-31T01:31:03;12.57;;;7.95;;
60975;SDS011;46849;48.154;17.042;2022-10-31T01:33:53;18.13;;;8.88;;
60975;SDS011;46849;48.154;17.042;2022-10-31T01:36:38;19.83;;;8.80;;
60975;SDS011;46849;48.154;17.042;2022-10-31T01:39:22;14.40;;;8.23;;
60975;SDS011;46849;48.154;17.042;2022-10-31T01:42:09;16.77;;;9.52;;
60975;SDS011;46849;48.154;17.042;2022-10-31T01:45:01;15.00;;;8.38;;
60975;SDS011;46849;48.154;17.042;2022-10-31T01:47:47;17.30;;;9.20;;
60975;SDS011;46849;48.154;17.042;2022-10-31T01:50:35;15.82;;;8.55;;
60975;SDS011;46849;48.154;17.042;2022-10-31T01:53:23;15.80;;;8.77;;
60975;SDS011;46849;48.154;17.042;2022-10-31T01:56:08;15.50;;;8.98;;
60975;SDS011;46849;48.154;17.042;2022-10-31T01:58:55;16.77;;;9.20;;
60975;SDS011;46849;48.154;17.042;2022-10-31T02:01:42;35.17;;;9.55;;
60975;SDS011;46849;48.154;17.042;2022-10-31T02:04:27;19.08;;;9.27;;
60975;SDS011;46849;48.154;17.042;2022-10-31T02:07:14;15.57;;;8.82;;
60975;SDS011;46849;48.154;17.042;2022-10-31T02:10:03;14.38;;;7.47;;
60975;SDS011;46849;48.154;17.042;2022-10-31T02:12:48;19.52;;;9.20;;
60975;SDS011;46849;48.154;17.042;2022-10-31T02:15:36;19.67;;;8.88;;
60975;SDS011;46849;48.154;17.042;2022-10-31T02:18:22;16.38;;;9.25;;
60975;SDS011;46849;48.154;17.042;2022-10-31T02:21:15;18.92;;;9.43;;
60975;SDS011;46849;48.154;17.042;2022-10-31T02:24:23;16.63;;;8.60;;
60975;SDS011;46849;48.154;17.042;2022-10-31T02:27:31;14.13;;;7.65;;
60975;SDS011;46849;48.154;17.042;2022-10-31T02:36:49;16.87;;;8.17;;
60975;SDS011;46849;48.154;17.042;2022-10-31T02:50:21;16.60;;;9.10;;
60975;SDS011;46849;48.154;17.042;2022-10-31T02:53:10;15.40;;;8.50;;
60975;SDS011;46849;48.154;17.042;2022-10-31T02:55:59;14.70;;;8.05;;
60975;SDS011;46849;48.154;17.042;2022-10-31T02:59:05;12.70;;;7.03;;
60975;SDS011;46849;48.154;17.042;2022-10-31T03:04:55;12.98;;;7.18;;
60975;SDS011;46849;48.154;17.042;2022-10-31T03:10:58;12.60;;;7.32;;
60975;SDS011;46849;48.154;17.042;2022-10-31T03:19:42;10.98;;;6.25;;
60975;SDS011;46849;48.154;17.042;2022-10-31T03:22:31;12.15;;;5.47;;
60975;SDS011;46849;48.154;17.042;2022-10-31T03:25:17;10.32;;;5.63;;
60975;SDS011;46849;48.154;17.042;2022-10-31T03:28:02;8.68;;;5.25;;
60975;SDS011;46849;48.154;17.042;2022-10-31T03:30:50;9.68;;;5.60;;
60975;SDS011;46849;48.154;17.042;2022-10-31T03:33:37;11.52;;;5.63;;
60975;SDS011;46849;48.154;17.042;2022-10-31T03:36:25;8.52;;;5.13;;
60975;SDS011;46849;48.154;17.042;2022-10-31T03:39:11;9.48;;;5.30;;
60975;SDS011;46849;48.154;17.042;2022-10-31T03:42:05;11.50;;;5.88;;
60975;SDS011;46849;48.154;17.042;2022-10-31T03:44:58;8.80;;;5.60;;
60975;SDS011;46849;48.154;17.042;2022-10-31T03:47:48;9.52;;;5.47;;
60975;SDS011;46849;48.154;17.042;2022-10-31T03:54:21;8.43;;;4.65;;
60975;SDS011;46849;48.154;17.042;2022-10-31T03:57:22;7.43;;;4.38;;
60975;SDS011;46849;48.154;17.042;2022-10-31T04:00:13;10.55;;;5.85;;
60975;SDS011;46849;48.154;17.042;2022-10-31T04:03:07;11.10;;;5.22;;
60975;SDS011;46849;48.154;17.042;2022-10-31T04:05:59;10.43;;;5.50;;
60975;SDS011;46849;48.154;17.042;2022-10-31T04:08:53;13.03;;;7.13;;
60975;SDS011;46849;48.154;17.042;2022-10-31T04:11:47;11.50;;;6.80;;
60975;SDS011;46849;48.154;17.042;2022-10-31T04:15:04;11.65;;;6.75;;
60975;SDS011;46849;48.154;17.042;2022-10-31T04:17:52;9.60;;;5.95;;
60975;SDS011;46849;48.154;17.042;2022-10-31T04:20:40;10.02;;;6.30;;
60975;SDS011;46849;48.154;17.042;2022-10-31T04:23:26;9.05;;;5.57;;
60975;SDS011;46849;48.154;17.042;2022-10-31T04:26:12;9.85;;;5.22;;
60975;SDS011;46849;48.154;17.042;2022-10-31T04:28:56;11.05;;;5.95;;
60975;SDS011;46849;48.154;17.042;2022-10-31T04:31:41;7.93;;;4.88;;
60975;SDS011;46849;48.154;17.042;2022-10-31T04:34:26;8.57;;;5.13;;
60975;SDS011;46849;48.154;17.042;2022-10-31T04:37:11;10.15;;;5.50;;
60975;SDS011;46849;48.154;17.042;2022-10-31T04:39:55;8.25;;;5.10;;
60975;SDS011;46849;48.154;17.042;2022-10-31T04:43:03;9.10;;;5.68;;
60975;SDS011;46849;48.154;17.042;2022-10-31T04:45:49;9.00;;;5.40;;
60975;SDS011;46849;48.154;17.042;2022-10-31T04:48:33;8.43;;;5.15;;
60975;SDS011;46849;48.154;17.042;2022-10-31T04:51:22;8.80;;;5.38;;
60975;SDS011;46849;48.154;17.042;2022-10-31T04:54:07;7.03;;;4.32;;
60975;SDS011;46849;48.154;17.042;2022-10-31T04:57:11;7.07;;;4.50;;
60975;SDS011;46849;48.154;17.042;2022-10-31T04:59:56;8.40;;;5.35;;
60975;SDS011;46849;48.154;17.042;2022-10-31T05:02:45;8.35;;;4.93;;
60975;SDS011;46849;48.154;17.042;2022-10-31T05:05:31;9.05;;;5.90;;
60975;SDS011;46849;48.154;17.042;2022-10-31T05:08:19;8.63;;;4.70;;
60975;SDS011;46849;48.154;17.042;2022-10-31T05:11:06;7.88;;;4.78;;
60975;SDS011;46849;48.154;17.042;2022-10-31T05:13:51;9.00;;;5.25;;
60975;SDS011;46849;48.154;17.042;2022-10-31T05:16:54;8.18;;;4.50;;
60975;SDS011;46849;48.154;17.042;2022-10-31T05:20:02;5.95;;;3.83;;
60975;SDS011;46849;48.154;17.042;2022-10-31T05:23:25;9.07;;;5.55;;
60975;SDS011;46849;48.154;17.042;2022-10-31T05:26:10;11.65;;;6.63;;
60975;SDS011;46849;48.154;17.042;2022-10-31T05:28:54;9.52;;;5.50;;
60975;SDS011;46849;48.154;17.042;2022-10-31T05:31:39;7.45;;;4.75;;
60975;SDS011;46849;48.154;17.042;2022-10-31T05:34:26;12.00;;;6.75;;
60975;SDS011;46849;48.154;17.042;2022-10-31T05:37:31;13.75;;;8.48;;
60975;SDS011;46849;48.154;17.042;2022-10-31T05:40:18;11.90;;;6.82;;
60975;SDS011;46849;48.154;17.042;2022-10-31T05:43:04;10.18;;;6.03;;
60975;SDS011;46849;48.154;17.042;2022-10-31T05:45:51;8.90;;;5.57;;
60975;SDS011;46849;48.154;17.042;2022-10-31T05:48:57;10.68;;;6.78;;
60975;SDS011;46849;48.154;17.042;2022-10-31T05:52:01;8.15;;;5.10;;
60975;SDS011;46849;48.154;17.042;2022-10-31T05:54:55;10.07;;;5.90;;
60975;SDS011;46849;48.154;17.042;2022-10-31T05:57:40;12.93;;;5.55;;
60975;SDS011;46849;48.154;17.042;2022-10-31T06:00:24;10.73;;;6.05;;
60975;SDS011;46849;48.154;17.042;2022-10-31T06:03:09;9.13;;;5.65;;
60975;SDS011;46849;48.154;17.042;2022-10-31T06:06:10;9.30;;;5.60;;
60975;SDS011;46849;48.154;17.042;2022-10-31T06:08:58;7.90;;;4.97;;
60975;SDS011;46849;48.154;17.042;2022-10-31T06:11:43;8.27;;;5.55;;
60975;SDS011;46849;48.154;17.042;2022-10-31T06:14:43;12.93;;;7.82;;
60975;SDS011;46849;48.154;17.042;2022-10-31T06:17:28;12.55;;;7.18;;
60975;SDS011;46849;48.154;17.042;2022-10-31T06:20:33;8.75;;;6.03;;
60975;SDS011;46849;48.154;17.042;2022-10-31T06:23:21;10.40;;;6.32;;
60975;SDS011;46849;48.154;17.042;2022-10-31T06:26:10;8.57;;;6.00;;
60975;SDS011;46849;48.154;17.042;2022-10-31T06:28:55;11.43;;;5.70;;
60975;SDS011;46849;48.154;17.042;2022-10-31T06:31:58;9.25;;;5.55;;
60975;SDS011;46849;48.154;17.042;2022-10-31T06:34:43;13.95;;;7.95;;
60975;SDS011;46849;48.154;17.042;2022-10-31T06:37:28;14.27;;;8.90;;
60975;SDS011;46849;48.154;17.042;2022-10-31T06:40:19;11.75;;;8.18;;
60975;SDS011;46849;48.154;17.042;2022-10-31T06:43:27;12.77;;;7.78;;
60975;SDS011;46849;48.154;17.042;2022-10-31T06:46:41;16.63;;;9.95;;
60975;SDS011;46849;48.154;17.042;2022-10-31T06:49:44;12.15;;;7.13;;
60975;SDS011;46849;48.154;17.042;2022-10-31T06:52:32;14.38;;;7.80;;
60975;SDS011;46849;48.154;17.042;2022-10-31T06:55:17;15.43;;;8.80;;
60975;SDS011;46849;48.154;17.042;2022-10-31T06:58:01;12.95;;;7.57;;
60975;SDS011;46849;48.154;17.042;2022-10-31T07:00:48;16.98;;;7.45;;
60975;SDS011;46849;48.154;17.042;2022-10-31T07:03:33;11.98;;;6.88;;
60975;SDS011;46849;48.154;17.042;2022-10-31T07:06:17;11.05;;;7.50;;
60975;SDS011;46849;48.154;17.042;2022-10-31T07:09:02;14.00;;;8.80;;
60975;SDS011;46849;48.154;17.042;2022-10-31T07:11:47;11.23;;;6.45;;
60975;SDS011;46849;48.154;17.042;2022-10-31T07:14:32;11.10;;;7.22;;
60975;SDS011;46849;48.154;17.042;2022-10-31T07:17:17;11.77;;;7.18;;
60975;SDS011;46849;48.154;17.042;2022-10-31T07:20:03;12.25;;;6.90;;
60975;SDS011;46849;48.154;17.042;2022-10-31T07:22:48;12.63;;;7.78;;
60975;SDS011;46849;48.154;17.042;2022-10-31T07:25:33;11.77;;;7.15;;
60975;SDS011;46849;48.154;17.042;2022-10-31T07:28:37;11.68;;;7.65;;
60975;SDS011;46849;48.154;17.042;2022-10-31T07:31:23;12.32;;;6.50;;
60975;SDS011;46849;48.154;17.042;2022-10-31T07:34:11;11.52;;;6.78;;
60975;SDS011;46849;48.154;17.042;2022-10-31T07:37:18;12.65;;;8.32;;
60975;SDS011;46849;48.154;17.042;2022-10-31T07:40:03;12.82;;;7.18;;
60975;SDS011;46849;48.154;17.042;2022-10-31T07:42:50;15.18;;;7.95;;
60975;SDS011;46849;48.154;17.042;2022-10-31T07:46:06;10.63;;;7.18;;
60975;SDS011;46849;48.154;17.042;2022-10-31T07:49:14;15.13;;;8.98;;
60975;SDS011;46849;48.154;17.042;2022-10-31T07:52:17;19.20;;;12.48;;
60975;SDS011;46849;48.154;17.042;2022-10-31T07:55:24;16.00;;;10.25;;
60975;SDS011;46849;48.154;17.042;2022-10-31T07:58:16;13.85;;;8.55;;
60975;SDS011;46849;48.154;17.042;2022-10-31T08:01:02;15.85;;;9.45;;
60975;SDS011;46849;48.154;17.042;2022-10-31T08:03:56;12.90;;;7.70;;
60975;SDS011;46849;48.154;17.042;2022-10-31T08:07:00;15.57;;;7.32;;
60975;SDS011;46849;48.154;17.042;2022-10-31T08:09:49;15.25;;;9.13;;
60975;SDS011;46849;48.154;17.042;2022-10-31T08:12:41;24.55;;;12.15;;
60975;SDS011;46849;48.154;17.042;2022-10-31T08:15:26;17.52;;;10.18;;
60975;SDS011;46849;48.154;17.042;2022-10-31T08:18:12;15.63;;;9.25;;
60975;SDS011;46849;48.154;17.042;2022-10-31T08:20:58;20.52;;;10.23;;
60975;SDS011;46849;48.154;17.042;2022-10-31T08:23:43;19.70;;;9.75;;
60975;SDS011;46849;48.154;17.042;2022-10-31T08:26:27;21.80;;;10.82;;
60975;SDS011;46849;48.154;17.042;2022-10-31T08:29:13;20.92;;;13.00;;
60975;SDS011;46849;48.154;17.042;2022-10-31T08:31:59;20.63;;;10.50;;
60975;SDS011;46849;48.154;17.042;2022-10-31T08:35:10;23.88;;;13.68;;
60975;SDS011;46849;48.154;17.042;2022-10-31T08:38:24;25.83;;;14.73;;
60975;SDS011;46849;48.154;17.042;2022-10-31T08:41:09;25.45;;;14.25;;
60975;SDS011;46849;48.154;17.042;2022-10-31T08:43:54;26.58;;;15.30;;
60975;SDS011;46849;48.154;17.042;2022-10-31T08:46:39;27.05;;;15.02;;
60975;SDS011;46849;48.154;17.042;2022-10-31T08:49:24;21.10;;;13.45;;
60975;SDS011;46849;48.154;17.042;2022-10-31T08:52:09;22.08;;;13.52;;
60975;SDS011;46849;48.154;17.042;2022-10-31T08:54:57;23.00;;;14.20;;
60975;SDS011;46849;48.154;17.042;2022-10-31T08:58:01;26.80;;;14.88;;
60975;SDS011;46849;48.154;17.042;2022-10-31T09:00:55;32.22;;;17.85;;
60975;SDS011;46849;48.154;17.042;2022-10-31T09:03:43;34.97;;;17.75;;
60975;SDS011;46849;48.154;17.042;2022-10-31T09:06:29;28.98;;;16.40;;
60975;SDS011;46849;48.154;17.042;2022-10-31T09:09:13;28.33;;;16.58;;
60975;SDS011;46849;48.154;17.042;2022-10-31T09:11:58;29.52;;;16.85;;
60975;SDS011;46849;48.154;17.042;2022-10-31T09:15:15;27.67;;;16.73;;
60975;SDS011;46849;48.154;17.042;2022-10-31T09:18:11;28.15;;;17.00;;
60975;SDS011;46849;48.154;17.042;2022-10-31T09:21:12;36.10;;;18.13;;
60975;SDS011;46849;48.154;17.042;2022-10-31T09:23:57;34.95;;;18.23;;
60975;SDS011;46849;48.154;17.042;2022-10-31T09:26:42;28.15;;;16.75;;
60975;SDS011;46849;48.154;17.042;2022-10-31T09:29:45;27.40;;;16.98;;
60975;SDS011;46849;48.154;17.042;2022-10-31T09:32:32;26.55;;;16.48;;
60975;SDS011;46849;48.154;17.042;2022-10-31T09:35:21;25.33;;;16.38;;
60975;SDS011;46849;48.154;17.042;2022-10-31T09:38:13;24.52;;;15.98;;
60975;SDS011;46849;48.154;17.042;2022-10-31T09:46:46;23.70;;;16.02;;
60975;SDS011;46849;48.154;17.042;2022-10-31T09:52:38;23.27;;;14.75;;
60975;SDS011;46849;48.154;17.042;2022-10-31T09:55:40;25.27;;;15.48;;
60975;SDS011;46849;48.154;17.042;2022-10-31T09:58:28;26.02;;;15.52;;
60975;SDS011;46849;48.154;17.042;2022-10-31T10:07:53;21.88;;;14.93;;
60975;SDS011;46849;48.154;17.042;2022-10-31T10:16:57;21.60;;;14.43;;
60975;SDS011;46849;48.154;17.042;2022-10-31T10:25:40;28.33;;;16.52;;
60975;SDS011;46849;48.154;17.042;2022-10-31T10:28:29;30.20;;;17.05;;
60975;SDS011;46849;48.154;17.042;2022-10-31T10:31:30;24.52;;;15.75;;
60975;SDS011;46849;48.154;17.042;2022-10-31T10:34:20;21.23;;;14.70;;
60975;SDS011;46849;48.154;17.042;2022-10-31T10:37:20;24.48;;;15.40;;
60975;SDS011;46849;48.154;17.042;2022-10-31T10:40:14;23.85;;;15.05;;
60975;SDS011;46849;48.154;17.042;2022-10-31T10:55:39;25.33;;;15.02;;
60975;SDS011;46849;48.154;17.042;2022-10-31T10:58:33;19.83;;;13.55;;
60975;SDS011;46849;48.154;17.042;2022-10-31T11:01:21;24.08;;;14.65;;
60975;SDS011;46849;48.154;17.042;2022-10-31T11:04:19;20.90;;;13.73;;
60975;SDS011;46849;48.154;17.042;2022-10-31T11:07:11;20.10;;;13.63;;
60975;SDS011;46849;48.154;17.042;2022-10-31T11:10:04;23.63;;;14.05;;
60975;SDS011;46849;48.154;17.042;2022-10-31T11:12:58;21.83;;;14.30;;
60975;SDS011;46849;48.154;17.042;2022-10-31T11:15:54;20.58;;;14.45;;
60975;SDS011;46849;48.154;17.042;2022-10-31T11:18:42;21.77;;;13.32;;
60975;SDS011;46849;48.154;17.042;2022-10-31T11:21:30;20.77;;;14.50;;
60975;SDS011;46849;48.154;17.042;2022-10-31T11:24:18;24.10;;;15.35;;
60975;SDS011;46849;48.154;17.042;2022-10-31T11:27:15;21.15;;;14.27;;
60975;SDS011;46849;48.154;17.042;2022-10-31T11:30:05;20.58;;;14.45;;
60975;SDS011;46849;48.154;17.042;2022-10-31T11:32:50;24.52;;;16.95;;
60975;SDS011;46849;48.154;17.042;2022-10-31T11:35:38;21.92;;;15.43;;
60975;SDS011;46849;48.154;17.042;2022-10-31T11:38:26;24.92;;;16.48;;
60975;SDS011;46849;48.154;17.042;2022-10-31T11:41:25;28.13;;;18.45;;
60975;SDS011;46849;48.154;17.042;2022-10-31T11:44:14;25.25;;;16.08;;
60975;SDS011;46849;48.154;17.042;2022-10-31T11:47:20;27.30;;;17.30;;
60975;SDS011;46849;48.154;17.042;2022-10-31T11:50:14;28.23;;;16.88;;
60975;SDS011;46849;48.154;17.042;2022-10-31T11:53:16;28.50;;;18.10;;
60975;SDS011;46849;48.154;17.042;2022-10-31T11:56:13;28.40;;;19.60;;
60975;SDS011;46849;48.154;17.042;2022-10-31T11:59:02;28.10;;;18.83;;
60975;SDS011;46849;48.154;17.042;2022-10-31T12:01:50;28.30;;;18.25;;
60975;SDS011;46849;48.154;17.042;2022-10-31T12:07:31;28.42;;;18.50;;
60975;SDS011;46849;48.154;17.042;2022-10-31T12:10:15;31.80;;;19.95;;
60975;SDS011;46849;48.154;17.042;2022-10-31T12:13:08;30.80;;;20.27;;
60975;SDS011;46849;48.154;17.042;2022-10-31T12:16:24;34.63;;;21.67;;
60975;SDS011;46849;48.154;17.042;2022-10-31T12:19:22;34.17;;;22.30;;
60975;SDS011;46849;48.154;17.042;2022-10-31T12:28:44;30.20;;;20.15;;
60975;SDS011;46849;48.154;17.042;2022-10-31T12:43:34;37.97;;;23.13;;
60975;SDS011;46849;48.154;17.042;2022-10-31T12:55:21;38.03;;;23.50;;
60975;SDS011;46849;48.154;17.042;2022-10-31T12:58:14;45.25;;;25.33;;
60975;SDS011;46849;48.154;17.042;2022-10-31T13:01:12;39.17;;;23.15;;
60975;SDS011;46849;48.154;17.042;2022-10-31T13:04:12;32.67;;;20.77;;
60975;SDS011;46849;48.154;17.042;2022-10-31T13:07:08;35.92;;;22.55;;
60975;SDS011;46849;48.154;17.042;2022-10-31T13:10:18;36.85;;;21.80;;
60975;SDS011;46849;48.154;17.042;2022-10-31T13:13:09;34.00;;;22.33;;
60975;SDS011;46849;48.154;17.042;2022-10-31T13:19:09;36.38;;;22.55;;
60975;SDS011;46849;48.154;17.042;2022-10-31T13:30:45;41.25;;;23.17;;
60975;SDS011;46849;48.154;17.042;2022-10-31T13:33:41;42.25;;;24.23;;
60975;SDS011;46849;48.154;17.042;2022-10-31T13:42:35;38.83;;;22.05;;
60975;SDS011;46849;48.154;17.042;2022-10-31T13:45:35;39.50;;;23.67;;
60975;SDS011;46849;48.154;17.042;2022-10-31T13:48:32;37.53;;;21.65;;
60975;SDS011;46849;48.154;17.042;2022-10-31T13:51:26;36.88;;;22.27;;
60975;SDS011;46849;48.154;17.042;2022-10-31T13:54:20;36.08;;;22.65;;
60975;SDS011;46849;48.154;17.042;2022-10-31T13:57:19;39.88;;;23.00;;
60975;SDS011;46849;48.154;17.042;2022-10-31T14:00:24;39.10;;;22.95;;
60975;SDS011;46849;48.154;17.042;2022-10-31T14:03:16;40.40;;;21.15;;
60975;SDS011;46849;48.154;17.042;2022-10-31T14:06:04;37.47;;;21.60;;
60975;SDS011;46849;48.154;17.042;2022-10-31T14:08:52;41.75;;;22.70;;
60975;SDS011;46849;48.154;17.042;2022-10-31T14:11:37;38.47;;;21.77;;
60975;SDS011;46849;48.154;17.042;2022-10-31T14:14:23;41.88;;;24.13;;
60975;SDS011;46849;48.154;17.042;2022-10-31T14:17:19;46.08;;;24.13;;
60975;SDS011;46849;48.154;17.042;2022-10-31T14:22:54;49.35;;;24.67;;
60975;SDS011;46849;48.154;17.042;2022-10-31T14:25:39;51.00;;;24.05;;
60975;SDS011;46849;48.154;17.042;2022-10-31T14:28:34;45.58;;;24.67;;
60975;SDS011;46849;48.154;17.042;2022-10-31T14:37:28;56.67;;;24.45;;
60975;SDS011;46849;48.154;17.042;2022-10-31T14:40:42;53.67;;;26.45;;
60975;SDS011;46849;48.154;17.042;2022-10-31T14:46:47;53.75;;;24.17;;
60975;SDS011;46849;48.154;17.042;2022-10-31T14:53:02;47.00;;;25.25;;
60975;SDS011;46849;48.154;17.042;2022-10-31T14:55:49;47.35;;;23.75;;
60975;SDS011;46849;48.154;17.042;2022-10-31T14:58:40;50.78;;;25.63;;
60975;SDS011;46849;48.154;17.042;2022-10-31T15:01:28;38.35;;;21.55;;
60975;SDS011;46849;48.154;17.042;2022-10-31T15:04:20;39.63;;;21.20;;
60975;SDS011;46849;48.154;17.042;2022-10-31T15:10:04;38.58;;;20.23;;
60975;SDS011;46849;48.154;17.042;2022-10-31T15:12:51;41.85;;;20.50;;
60975;SDS011;46849;48.154;17.042;2022-10-31T15:15:36;49.90;;;22.60;;
60975;SDS011;46849;48.154;17.042;2022-10-31T15:18:23;44.40;;;23.02;;
60975;SDS011;46849;48.154;17.042;2022-10-31T15:21:09;49.67;;;24.55;;
60975;SDS011;46849;48.154;17.042;2022-10-31T15:23:57;44.33;;;23.80;;
60975;SDS011;46849;48.154;17.042;2022-10-31T15:26:45;47.15;;;23.00;;
60975;SDS011;46849;48.154;17.042;2022-10-31T15:29:31;45.03;;;21.83;;
60975;SDS011;46849;48.154;17.042;2022-10-31T15:32:20;44.22;;;22.58;;
60975;SDS011;46849;48.154;17.042;2022-10-31T15:35:09;42.95;;;21.27;;
60975;SDS011;46849;48.154;17.042;2022-10-31T15:37:55;44.28;;;23.33;;
60975;SDS011;46849;48.154;17.042;2022-10-31T15:40:41;44.60;;;23.52;;
60975;SDS011;46849;48.154;17.042;2022-10-31T15:43:37;44.80;;;23.80;;
60975;SDS011;46849;48.154;17.042;2022-10-31T15:46:23;43.80;;;22.33;;
60975;SDS011;46849;48.154;17.042;2022-10-31T15:49:15;44.88;;;22.60;;
60975;SDS011;46849;48.154;17.042;2022-10-31T15:52:12;42.92;;;21.73;;
60975;SDS011;46849;48.154;17.042;2022-10-31T15:55:03;38.72;;;20.02;;
60975;SDS011;46849;48.154;17.042;2022-10-31T15:57:54;38.45;;;20.42;;
60975;SDS011;46849;48.154;17.042;2022-10-31T16:00:43;37.47;;;19.38;;
60975;SDS011;46849;48.154;17.042;2022-10-31T16:03:28;44.10;;;19.77;;
60975;SDS011;46849;48.154;17.042;2022-10-31T16:06:18;35.83;;;17.85;;
60975;SDS011;46849;48.154;17.042;2022-10-31T16:09:18;27.50;;;14.38;;
60975;SDS011;46849;48.154;17.042;2022-10-31T16:12:05;24.60;;;12.75;;
60975;SDS011;46849;48.154;17.042;2022-10-31T16:14:57;22.13;;;12.18;;
60975;SDS011;46849;48.154;17.042;2022-10-31T16:17:45;21.30;;;10.95;;
60975;SDS011;46849;48.154;17.042;2022-10-31T16:20:31;24.95;;;9.68;;
60975;SDS011;46849;48.154;17.042;2022-10-31T16:23:17;22.38;;;10.68;;
60975;SDS011;46849;48.154;17.042;2022-10-31T16:26:07;32.40;;;11.68;;
60975;SDS011;46849;48.154;17.042;2022-10-31T16:28:56;24.35;;;11.77;;
60975;SDS011;46849;48.154;17.042;2022-10-31T16:31:41;29.27;;;14.70;;
60975;SDS011;46849;48.154;17.042;2022-10-31T16:34:26;42.90;;;16.65;;
60975;SDS011;46849;48.154;17.042;2022-10-31T16:37:11;38.42;;;18.90;;
60975;SDS011;46849;48.154;17.042;2022-10-31T16:39:55;59.08;;;18.00;;
60975;SDS011;46849;48.154;17.042;2022-10-31T16:42:41;43.28;;;15.27;;
60975;SDS011;46849;48.154;17.042;2022-10-31T16:45:27;41.70;;;13.07;;
60975;SDS011;46849;48.154;17.042;2022-10-31T16:48:15;31.80;;;12.10;;
60975;SDS011;46849;48.154;17.042;2022-10-31T16:51:07;45.47;;;15.93;;
60975;SDS011;46849;48.154;17.042;2022-10-31T16:53:54;22.95;;;11.68;;
60975;SDS011;46849;48.154;17.042;2022-10-31T16:56:39;20.95;;;10.45;;
60975;SDS011;46849;48.154;17.042;2022-10-31T16:59:26;19.90;;;10.05;;
60975;SDS011;46849;48.154;17.042;2022-10-31T17:02:15;27.13;;;11.50;;
60975;SDS011;46849;48.154;17.042;2022-10-31T17:05:01;26.15;;;11.55;;
60975;SDS011;46849;48.154;17.042;2022-10-31T17:07:46;22.58;;;9.68;;
60975;SDS011;46849;48.154;17.042;2022-10-31T17:10:31;19.33;;;8.70;;
60975;SDS011;46849;48.154;17.042;2022-10-31T17:13:17;14.45;;;7.93;;
60975;SDS011;46849;48.154;17.042;2022-10-31T17:16:06;19.98;;;8.98;;
60975;SDS011;46849;48.154;17.042;2022-10-31T17:18:51;17.92;;;8.57;;
60975;SDS011;46849;48.154;17.042;2022-10-31T17:21:36;20.58;;;8.68;;
60975;SDS011;46849;48.154;17.042;2022-10-31T17:24:22;15.93;;;8.38;;
60975;SDS011;46849;48.154;17.042;2022-10-31T17:27:07;16.20;;;8.23;;
60975;SDS011;46849;48.154;17.042;2022-10-31T17:29:51;17.73;;;8.05;;
60975;SDS011;46849;48.154;17.042;2022-10-31T17:32:36;12.13;;;7.32;;
60975;SDS011;46849;48.154;17.042;2022-10-31T17:35:20;14.95;;;7.65;;
60975;SDS011;46849;48.154;17.042;2022-10-31T17:38:05;14.95;;;7.95;;
60975;SDS011;46849;48.154;17.042;2022-10-31T17:40:50;18.00;;;7.55;;
60975;SDS011;46849;48.154;17.042;2022-10-31T17:43:35;15.13;;;7.60;;
60975;SDS011;46849;48.154;17.042;2022-10-31T17:46:27;22.10;;;8.55;;
60975;SDS011;46849;48.154;17.042;2022-10-31T17:49:11;16.60;;;7.10;;
60975;SDS011;46849;48.154;17.042;2022-10-31T17:51:56;17.50;;;8.27;;
60975;SDS011;46849;48.154;17.042;2022-10-31T17:54:41;20.70;;;7.05;;
60975;SDS011;46849;48.154;17.042;2022-10-31T17:57:25;14.02;;;6.93;;
60975;SDS011;46849;48.154;17.042;2022-10-31T18:00:11;12.00;;;7.70;;
60975;SDS011;46849;48.154;17.042;2022-10-31T18:02:57;11.75;;;6.85;;
60975;SDS011;46849;48.154;17.042;2022-10-31T18:05:49;16.25;;;7.38;;
60975;SDS011;46849;48.154;17.042;2022-10-31T18:08:35;12.00;;;7.18;;
60975;SDS011;46849;48.154;17.042;2022-10-31T18:11:22;14.05;;;7.43;;
60975;SDS011;46849;48.154;17.042;2022-10-31T18:14:07;12.00;;;6.95;;
60975;SDS011;46849;48.154;17.042;2022-10-31T18:16:51;16.55;;;8.52;;
60975;SDS011;46849;48.154;17.042;2022-10-31T18:19:36;15.48;;;8.13;;
60975;SDS011;46849;48.154;17.042;2022-10-31T18:22:21;16.25;;;8.98;;
60975;SDS011;46849;48.154;17.042;2022-10-31T18:25:05;16.75;;;9.90;;
60975;SDS011;46849;48.154;17.042;2022-10-31T18:27:50;18.02;;;9.55;;
60975;SDS011;46849;48.154;17.042;2022-10-31T18:30:37;16.48;;;9.50;;
60975;SDS011;46849;48.154;17.042;2022-10-31T18:33:23;18.23;;;9.70;;
60975;SDS011;46849;48.154;17.042;2022-10-31T18:36:08;19.33;;;8.25;;
60975;SDS011;46849;48.154;17.042;2022-10-31T18:38:54;14.20;;;8.77;;
60975;SDS011;46849;48.154;17.042;2022-10-31T18:41:39;18.05;;;9.45;;
60975;SDS011;46849;48.154;17.042;2022-10-31T18:44:24;14.65;;;8.38;;
60975;SDS011;46849;48.154;17.042;2022-10-31T18:47:09;15.23;;;8.63;;
60975;SDS011;46849;48.154;17.042;2022-10-31T18:49:53;20.83;;;8.77;;